Airfield :
LOGIN :

Register | Disclaimer

   EN    FR    IT 

 










Legend :    VFR   Marginal VFR   IFR   Intensive IFR   Very Intensive IFR
Visi :
Ceiling :
>= 8 km
>= 3000ft
5 to 8 km
1000 to 3000 ft
1500m to 5 km
500 to 1000 ft
800 to 1500m
200 to 500 ft
< 800m
< 200 ft
Symbols :   Thunderstorms  Fog  Heavy snow  Heavy precipitations  Wind > 20 kt
SIGMETs :     Misc.  Thunderstorms  Icing  Turbulence  Mountain Waves  Volcanic Ashes







- Airport Elevation : 49 ft
- IATA code : GLZ


EHGR - Gilze-Rijen Airbase

CURRENT METAR :
  • 210755Z AUTO 19002KT 9999 FEW015CB M09/M10 Q1023 BLU VRB02KT 9999 CAVOK TEMPO 4500 BR

EXPIRED METARs :
  • 210736Z AUTO 19003KT 9000 BR NCD M09/M10 Q1023 BLU VRB02KT 9999 CAVOK TEMPO 4500 BR
  • 210725Z AUTO 19003KT 9999 NCD M09/M10 Q1023 BLU
  • 210655Z AUTO VRB02KT 9999 NCD M09/M10 Q1023 BLU
  • 210625Z AUTO 18003KT 120V260 9999 NCD M09/M10 Q1023 BLU
  • 210555Z AUTO 29003KT 9999 BKN260 M09/M11 Q1023 BLU
  • 210525Z AUTO 22001KT 9999 NCD M08/M09 Q1023 BLU
  • 210455Z AUTO 19002KT 9999 NCD M09/M10 Q1023 BLU

TAF TAF EHGR
Valid from the 21 at 06:00 until the 21 at 18:00 UTC


210511Z 2106/2118 VRB02KT CAVOK
BECMG 2106/2108 22003KT
No reported NOTAMs for that airfield.



MET'MAP, your aeronautical weather chart ! - Copyright ORBIFLY December 2007 - Disclaimer

ORBIFLY MET'MAP TEAM :

Programming & Development : Alexandra Zaïnal
Concept & Development : Baudouin d'Aumeries
Co-Development & Prog : Marc-Olivier Méhu
Technical & hardware support : Manuel Goepfert

Contact : metmap@orbifly.com




SOURCES & CREDITS :

   NOAA